createdAt,value
2017-11-29T00:01:13.742Z,3.60
2017-11-29T00:03:41.984Z,3.60
2017-11-29T00:06:09.452Z,3.60
2017-11-29T00:08:36.934Z,3.50
2017-11-29T00:11:05.159Z,3.40
2017-11-29T00:13:32.762Z,3.40
2017-11-29T00:16:00.915Z,3.40
2017-11-29T00:18:28.435Z,3.40
2017-11-29T00:20:55.898Z,3.50
2017-11-29T00:23:23.370Z,3.50
2017-11-29T00:25:50.857Z,3.40
2017-11-29T00:28:18.320Z,3.40
2017-11-29T00:30:45.797Z,3.50
2017-11-29T00:33:14.045Z,3.50
2017-11-29T00:35:41.510Z,3.50
2017-11-29T00:38:11.406Z,3.50
2017-11-29T00:40:38.898Z,3.50
2017-11-29T00:43:13.465Z,3.50
2017-11-29T00:45:40.949Z,3.50
2017-11-29T00:48:08.421Z,3.50
2017-11-29T00:50:36.666Z,3.40
2017-11-29T00:53:04.150Z,3.40
2017-11-29T00:55:31.629Z,3.50
2017-11-29T00:57:59.866Z,3.40
2017-11-29T01:00:27.381Z,3.40
2017-11-29T01:02:54.844Z,3.30
2017-11-29T01:05:22.763Z,3.20
2017-11-29T01:07:50.229Z,3.20
2017-11-29T01:10:17.716Z,3.10
2017-11-29T01:12:45.956Z,3.00
2017-11-29T01:15:13.509Z,3.00
2017-11-29T01:17:41.207Z,3.00
2017-11-29T01:20:09.445Z,2.90
2017-11-29T01:22:37.118Z,2.90
2017-11-29T01:25:04.601Z,2.90
2017-11-29T01:27:32.836Z,2.90
2017-11-29T01:30:00.326Z,2.90
2017-11-29T01:32:28.572Z,2.90
2017-11-29T01:34:56.057Z,2.90
2017-11-29T01:37:23.525Z,2.90
2017-11-29T01:39:51.810Z,2.90
2017-11-29T01:42:19.283Z,2.90
2017-11-29T01:44:46.774Z,2.90
2017-11-29T01:47:14.250Z,2.90
2017-11-29T01:49:41.735Z,2.90
2017-11-29T01:52:09.990Z,2.80
2017-11-29T01:54:37.458Z,2.80
2017-11-29T01:57:05.717Z,2.70
2017-11-29T01:59:33.950Z,2.60
2017-11-29T02:02:01.434Z,2.50
2017-11-29T02:04:29.023Z,2.60
2017-11-29T02:06:57.290Z,2.70
2017-11-29T02:09:24.762Z,2.80
2017-11-29T02:11:53.014Z,2.80
2017-11-29T02:14:20.493Z,2.80
2017-11-29T02:16:48.753Z,2.80
2017-11-29T02:19:17.722Z,2.80
2017-11-29T02:21:45.243Z,2.80
2017-11-29T02:24:13.465Z,2.70
2017-11-29T02:26:40.961Z,2.70
2017-11-29T02:29:09.204Z,2.70
2017-11-29T02:31:36.677Z,2.60
2017-11-29T02:34:04.167Z,2.70
2017-11-29T02:36:31.661Z,2.70
2017-11-29T02:38:59.137Z,2.80
2017-11-29T02:41:38.705Z,2.80
2017-11-29T02:44:06.958Z,2.60
2017-11-29T02:46:37.574Z,2.60
2017-11-29T02:49:05.052Z,2.60
2017-11-29T02:51:32.801Z,2.50
2017-11-29T02:54:00.288Z,2.60
2017-11-29T02:56:27.789Z,2.50
2017-11-29T02:58:55.271Z,2.50
2017-11-29T03:01:22.758Z,2.50
2017-11-29T03:03:50.227Z,2.50
2017-11-29T03:06:18.717Z,2.50
2017-11-29T03:08:46.966Z,2.60
2017-11-29T03:11:14.511Z,2.60
2017-11-29T03:13:42.003Z,2.60
2017-11-29T03:16:10.255Z,2.70
2017-11-29T03:18:37.751Z,2.70
2017-11-29T03:21:05.226Z,2.70
2017-11-29T03:23:32.707Z,2.80
2017-11-29T03:26:00.174Z,2.80
2017-11-29T03:28:27.654Z,2.80
2017-11-29T03:30:55.217Z,2.70
2017-11-29T03:33:23.485Z,2.70
2017-11-29T03:35:51.723Z,2.70
2017-11-29T03:38:19.217Z,2.60
2017-11-29T03:40:46.682Z,2.60
2017-11-29T03:43:14.173Z,2.60
2017-11-29T03:45:41.641Z,2.60
2017-11-29T03:48:09.125Z,2.50
2017-11-29T03:50:37.047Z,2.60
2017-11-29T03:53:04.529Z,2.60
2017-11-29T03:55:32.010Z,2.50
2017-11-29T03:57:59.494Z,2.50
2017-11-29T04:00:26.967Z,2.40
2017-11-29T04:02:55.229Z,2.30
2017-11-29T04:05:22.751Z,2.30
2017-11-29T04:07:50.216Z,2.20
2017-11-29T04:10:17.699Z,2.20
2017-11-29T04:12:45.175Z,2.20
2017-11-29T04:15:13.422Z,2.30
2017-11-29T04:17:41.702Z,2.30
2017-11-29T04:20:09.172Z,2.20
2017-11-29T04:22:37.418Z,2.30
2017-11-29T04:25:04.922Z,2.30
2017-11-29T04:27:33.192Z,2.20
2017-11-29T04:30:08.494Z,2.20
2017-11-29T04:32:35.965Z,2.30
2017-11-29T04:35:03.458Z,2.30
2017-11-29T04:37:31.804Z,2.30
2017-11-29T04:39:59.321Z,2.30
2017-11-29T04:42:26.787Z,2.40
2017-11-29T04:44:54.288Z,2.40
2017-11-29T04:47:21.767Z,2.50
2017-11-29T04:49:50.013Z,2.40
2017-11-29T04:52:17.495Z,2.40
2017-11-29T04:54:45.755Z,2.40
2017-11-29T04:57:13.228Z,2.40
2017-11-29T04:59:41.482Z,2.50
2017-11-29T05:02:08.962Z,2.50
2017-11-29T05:04:36.465Z,2.50
2017-11-29T05:07:03.960Z,2.60
2017-11-29T05:09:31.463Z,2.60
2017-11-29T05:11:58.938Z,2.60
2017-11-29T05:14:26.422Z,2.60
2017-11-29T05:16:55.402Z,2.60
2017-11-29T05:19:22.885Z,2.50
2017-11-29T05:21:50.383Z,2.50
2017-11-29T05:24:17.863Z,2.50
2017-11-29T05:26:45.339Z,2.50
2017-11-29T05:29:12.835Z,2.50
2017-11-29T05:31:41.081Z,2.40
2017-11-29T05:34:08.574Z,2.40
2017-11-29T05:36:36.816Z,2.30
2017-11-29T05:39:04.302Z,2.30
2017-11-29T05:41:32.554Z,2.20
2017-11-29T05:44:00.040Z,2.20
2017-11-29T05:46:28.291Z,2.30
2017-11-29T05:48:55.863Z,2.30
2017-11-29T05:51:24.139Z,2.40
2017-11-29T05:53:52.428Z,2.40
2017-11-29T05:56:19.927Z,2.40
2017-11-29T05:58:47.413Z,2.30
2017-11-29T06:01:14.889Z,2.30
2017-11-29T06:03:43.122Z,2.40
2017-11-29T06:06:10.615Z,2.30
2017-11-29T06:08:38.121Z,2.40
2017-11-29T06:11:05.597Z,2.50
2017-11-29T06:13:33.092Z,2.50
2017-11-29T06:16:01.370Z,2.40
2017-11-29T06:18:28.864Z,2.40
2017-11-29T06:20:56.396Z,2.50
2017-11-29T06:23:24.644Z,2.40
2017-11-29T06:25:52.141Z,2.40
2017-11-29T06:28:20.380Z,2.40
2017-11-29T06:30:49.075Z,2.40
2017-11-29T06:33:16.558Z,2.40
2017-11-29T06:35:44.807Z,2.50
2017-11-29T06:38:12.289Z,2.50
2017-11-29T06:40:40.540Z,2.50
2017-11-29T06:43:08.016Z,2.50
2017-11-29T06:45:36.285Z,2.40
2017-11-29T06:48:04.529Z,2.50
2017-11-29T06:50:32.002Z,2.50
2017-11-29T06:52:59.470Z,2.50
2017-11-29T06:55:27.030Z,2.50
2017-11-29T06:57:54.501Z,2.50
2017-11-29T07:00:22.747Z,2.50
2017-11-29T07:02:50.227Z,2.50
2017-11-29T07:05:18.506Z,2.50
2017-11-29T07:07:46.764Z,2.50
2017-11-29T07:10:14.218Z,2.50
2017-11-29T07:12:41.716Z,2.50
2017-11-29T07:15:09.187Z,2.60
2017-11-29T07:17:36.675Z,2.60
2017-11-29T07:20:04.143Z,2.70
2017-11-29T07:22:31.628Z,2.60
2017-11-29T07:24:59.869Z,2.60
2017-11-29T07:27:27.363Z,2.60
2017-11-29T07:29:55.602Z,2.70
2017-11-29T07:32:23.083Z,2.60
2017-11-29T07:34:50.563Z,2.60
2017-11-29T07:37:18.851Z,2.60
2017-11-29T07:39:46.322Z,2.60
2017-11-29T07:42:13.823Z,2.70
2017-11-29T07:44:41.294Z,2.70
2017-11-29T07:47:08.766Z,2.70
2017-11-29T07:49:36.999Z,2.80
2017-11-29T07:52:04.532Z,2.80
2017-11-29T07:54:31.989Z,2.80
2017-11-29T07:56:59.494Z,2.90
2017-11-29T07:59:26.969Z,3.00
2017-11-29T08:01:55.221Z,3.00
2017-11-29T08:04:22.710Z,3.00
2017-11-29T08:06:50.209Z,3.10
2017-11-29T08:09:17.680Z,3.20
2017-11-29T08:11:45.148Z,3.20
2017-11-29T08:14:12.642Z,3.30
2017-11-29T08:16:40.881Z,3.30
2017-11-29T08:19:08.397Z,3.30
2017-11-29T08:21:35.883Z,3.30
2017-11-29T08:24:03.345Z,3.10
2017-11-29T08:26:30.815Z,3.20
2017-11-29T08:28:58.314Z,3.20
2017-11-29T08:31:25.785Z,3.30
2017-11-29T08:33:53.271Z,3.30
2017-11-29T08:36:20.737Z,3.20
2017-11-29T08:38:48.230Z,3.20
2017-11-29T08:41:16.464Z,3.20
2017-11-29T08:43:43.952Z,3.20
2017-11-29T08:46:11.423Z,3.20
2017-11-29T08:48:39.685Z,3.30
2017-11-29T08:51:07.939Z,3.20
2017-11-29T08:53:35.438Z,3.20
2017-11-29T08:56:03.721Z,3.20
2017-11-29T08:58:31.206Z,3.20
2017-11-29T09:00:58.683Z,3.20
2017-11-29T09:03:26.170Z,3.30
2017-11-29T09:05:53.742Z,3.40
2017-11-29T09:08:22.011Z,3.40
2017-11-29T09:10:50.293Z,3.50
2017-11-29T09:13:18.646Z,3.50
2017-11-29T09:15:47.626Z,3.50
2017-11-29T09:18:15.124Z,3.50
2017-11-29T09:20:43.382Z,3.50
2017-11-29T09:23:10.857Z,3.50
2017-11-29T09:25:39.114Z,3.60
2017-11-29T09:28:07.359Z,3.70
2017-11-29T09:30:41.319Z,3.60
2017-11-29T09:33:09.548Z,3.50
2017-11-29T09:35:37.048Z,3.50
2017-11-29T09:38:05.296Z,3.60
2017-11-29T09:40:32.808Z,3.60
2017-11-29T09:43:00.294Z,3.70
2017-11-29T09:45:27.767Z,3.70
2017-11-29T09:47:55.252Z,3.70
2017-11-29T09:50:22.748Z,3.70
2017-11-29T09:52:50.226Z,3.60
2017-11-29T09:55:17.730Z,3.80
2017-11-29T09:57:45.239Z,3.80
2017-11-29T10:00:12.755Z,3.80
2017-11-29T10:02:40.993Z,3.80
2017-11-29T10:05:08.492Z,3.80
2017-11-29T10:07:36.753Z,3.80
2017-11-29T10:10:05.042Z,3.80
2017-11-29T10:12:39.751Z,3.90
2017-11-29T10:15:08.002Z,4.00
2017-11-29T10:17:35.501Z,3.90
2017-11-29T10:20:03.743Z,4.10
2017-11-29T10:22:31.230Z,4.10
2017-11-29T10:24:59.493Z,4.20
2017-11-29T10:27:26.979Z,4.10
2017-11-29T10:29:55.256Z,4.10
2017-11-29T10:32:22.756Z,4.10
2017-11-29T10:34:57.053Z,4.10
2017-11-29T10:37:24.529Z,4.10
2017-11-29T10:39:52.036Z,4.20
2017-11-29T10:42:20.279Z,4.20
2017-11-29T10:44:47.754Z,4.20
2017-11-29T10:47:15.247Z,4.30
2017-11-29T10:49:42.758Z,4.30
2017-11-29T10:52:10.244Z,4.30
2017-11-29T10:54:38.491Z,4.40
2017-11-29T10:57:05.973Z,4.30
2017-11-29T10:59:34.244Z,4.40
2017-11-29T11:02:01.759Z,4.40
2017-11-29T11:04:29.242Z,4.50
2017-11-29T11:06:56.755Z,4.40
2017-11-29T11:09:24.222Z,4.50
2017-11-29T11:11:51.705Z,4.60
2017-11-29T11:14:19.206Z,4.60
2017-11-29T11:16:46.695Z,4.70
2017-11-29T11:19:14.177Z,4.70
2017-11-29T11:21:41.659Z,4.50
2017-11-29T11:24:09.915Z,4.50
2017-11-29T11:26:38.104Z,4.50
2017-11-29T11:29:05.582Z,4.50
2017-11-29T11:31:33.859Z,4.30
2017-11-29T11:34:02.103Z,4.30
2017-11-29T11:36:29.600Z,4.30
2017-11-29T11:38:57.842Z,4.30
2017-11-29T11:41:26.112Z,4.40
2017-11-29T11:43:53.600Z,4.40
2017-11-29T11:46:21.871Z,4.40
2017-11-29T11:48:50.108Z,4.50
2017-11-29T11:51:17.616Z,4.50
2017-11-29T11:53:45.894Z,4.60
2017-11-29T11:56:14.686Z,4.70
2017-11-29T11:58:42.927Z,4.70
2017-11-29T12:01:10.420Z,4.70
2017-11-29T12:03:38.672Z,4.70
2017-11-29T12:06:06.163Z,4.70
2017-11-29T12:08:33.652Z,4.70
2017-11-29T12:11:01.170Z,4.80
2017-11-29T12:13:29.431Z,4.80
2017-11-29T12:15:57.675Z,4.80
2017-11-29T12:18:25.168Z,4.80
2017-11-29T12:20:53.417Z,4.70
2017-11-29T12:23:20.898Z,4.70
2017-11-29T12:25:49.160Z,4.60
2017-11-29T12:28:16.670Z,4.60
2017-11-29T12:30:44.128Z,4.60
2017-11-29T12:33:11.661Z,4.50
2017-11-29T12:35:39.901Z,4.50
2017-11-29T12:38:07.403Z,4.50
2017-11-29T12:40:35.778Z,4.40
2017-11-29T12:43:03.267Z,4.40
2017-11-29T12:45:30.749Z,4.40
2017-11-29T12:48:10.932Z,4.30
2017-11-29T12:50:52.091Z,4.20
2017-11-29T12:53:19.594Z,4.20
2017-11-29T12:55:47.074Z,4.30
2017-11-29T12:58:14.564Z,4.30
2017-11-29T13:00:42.960Z,4.30
2017-11-29T13:03:10.465Z,4.30
2017-11-29T13:05:37.926Z,4.30
2017-11-29T13:08:05.418Z,4.30
2017-11-29T13:10:32.881Z,4.30
2017-11-29T13:13:00.358Z,4.30
2017-11-29T13:15:28.615Z,4.30
2017-11-29T13:17:56.102Z,4.30
2017-11-29T13:20:24.335Z,4.30
2017-11-29T13:22:51.810Z,4.30
2017-11-29T13:25:19.295Z,4.30
2017-11-29T13:27:46.788Z,4.30
2017-11-29T13:30:14.309Z,4.30
2017-11-29T13:32:42.566Z,4.20
2017-11-29T13:35:10.839Z,4.20
2017-11-29T13:37:39.122Z,4.20
2017-11-29T13:40:07.363Z,4.10
2017-11-29T13:42:34.835Z,4.10
2017-11-29T13:45:02.412Z,4.10
2017-11-29T13:47:30.661Z,4.10
2017-11-29T13:49:58.137Z,4.10
2017-11-29T13:52:25.614Z,4.10
2017-11-29T13:54:53.872Z,4.10
2017-11-29T13:57:22.146Z,4.10
2017-11-29T13:59:50.422Z,4.20
2017-11-29T14:02:18.658Z,4.10
2017-11-29T14:04:46.136Z,4.10
2017-11-29T14:07:15.553Z,4.10
2017-11-29T14:09:44.725Z,4.10
2017-11-29T14:12:12.191Z,4.10
2017-11-29T14:14:39.673Z,4.10
2017-11-29T14:17:07.149Z,4.20
2017-11-29T14:19:35.398Z,4.20
2017-11-29T14:22:02.897Z,4.10
2017-11-29T14:24:30.390Z,4.20
2017-11-29T14:26:57.885Z,4.10
2017-11-29T14:29:33.201Z,4.10
2017-11-29T14:32:00.674Z,4.10
2017-11-29T14:34:28.165Z,4.00
2017-11-29T14:36:56.411Z,3.80
2017-11-29T14:39:23.932Z,3.80
2017-11-29T14:41:51.415Z,3.80
2017-11-29T14:44:18.900Z,3.80
2017-11-29T14:46:47.130Z,3.80
2017-11-29T14:49:14.626Z,3.80
2017-11-29T14:51:42.111Z,3.80
2017-11-29T14:54:09.605Z,3.80
2017-11-29T14:56:37.078Z,3.80
2017-11-29T14:59:04.576Z,3.80
2017-11-29T15:01:32.843Z,3.70
2017-11-29T15:04:01.096Z,3.70
2017-11-29T15:06:28.573Z,3.70
2017-11-29T15:08:56.058Z,3.80
2017-11-29T15:11:23.550Z,3.80
2017-11-29T15:13:51.041Z,3.80
2017-11-29T15:16:18.543Z,3.90
2017-11-29T15:18:46.034Z,3.90
2017-11-29T15:21:13.523Z,3.90
2017-11-29T15:23:41.764Z,4.40
2017-11-29T15:26:09.264Z,4.40
2017-11-29T15:28:37.551Z,4.40
2017-11-29T15:31:05.799Z,4.30
2017-11-29T15:33:34.868Z,4.20
2017-11-29T15:36:02.349Z,4.20
2017-11-29T15:38:29.829Z,4.10
2017-11-29T15:40:58.083Z,4.00
2017-11-29T15:43:25.561Z,3.90
2017-11-29T15:45:53.816Z,3.90
2017-11-29T15:48:21.290Z,3.90
2017-11-29T15:50:49.557Z,3.70
2017-11-29T15:53:17.020Z,3.70
2017-11-29T15:55:45.271Z,3.70
2017-11-29T15:58:12.754Z,3.70
2017-11-29T16:00:41.017Z,3.70
2017-11-29T16:03:08.506Z,3.70
2017-11-29T16:05:35.994Z,3.70
2017-11-29T16:08:03.485Z,3.70
2017-11-29T16:10:31.015Z,3.70
2017-11-29T16:12:58.508Z,3.60
2017-11-29T16:15:26.017Z,3.60
2017-11-29T16:17:53.510Z,3.50
2017-11-29T16:20:21.002Z,3.40
2017-11-29T16:22:49.284Z,3.40
2017-11-29T16:25:17.535Z,3.40
2017-11-29T16:27:45.013Z,3.40
2017-11-29T16:30:13.260Z,3.40
2017-11-29T16:32:40.754Z,3.40
2017-11-29T16:35:08.240Z,3.30
2017-11-29T16:37:35.745Z,3.30
2017-11-29T16:40:03.247Z,3.20
2017-11-29T16:45:24.317Z,2.80
2017-11-29T16:47:51.822Z,2.80
2017-11-29T16:50:19.290Z,2.80
2017-11-29T16:52:46.785Z,2.90
2017-11-29T16:55:14.249Z,3.00
2017-11-29T16:57:41.752Z,3.00
2017-11-29T17:00:09.244Z,3.00
2017-11-29T17:02:36.763Z,2.80
2017-11-29T17:05:04.238Z,2.80
2017-11-29T17:07:31.711Z,2.70
2017-11-29T17:09:59.194Z,2.80
2017-11-29T17:12:26.691Z,2.80
2017-11-29T17:14:54.966Z,3.00
2017-11-29T17:17:23.217Z,3.00
2017-11-29T17:19:50.690Z,2.90
2017-11-29T17:22:18.950Z,3.00
2017-11-29T17:24:46.445Z,3.00
2017-11-29T17:27:13.956Z,2.90
2017-11-29T17:29:53.326Z,2.90
2017-11-29T17:32:21.681Z,3.00
2017-11-29T17:34:49.166Z,2.90
2017-11-29T17:37:17.417Z,3.00
2017-11-29T17:39:45.671Z,3.00
2017-11-29T17:42:13.930Z,2.90
2017-11-29T17:44:41.403Z,2.90
2017-11-29T17:47:08.913Z,2.90
2017-11-29T17:49:36.398Z,2.90
2017-11-29T17:52:04.641Z,2.80
2017-11-29T17:54:32.893Z,2.80
2017-11-29T17:57:00.371Z,2.80
2017-11-29T17:59:28.646Z,2.70
2017-11-29T18:01:56.881Z,2.60
2017-11-29T18:04:24.377Z,2.60
2017-11-29T18:06:52.643Z,2.70
2017-11-29T18:09:20.894Z,2.70
2017-11-29T18:11:48.414Z,2.70
2017-11-29T18:14:16.963Z,2.70
2017-11-29T18:16:45.202Z,2.60
2017-11-29T18:19:12.687Z,2.50
2017-11-29T18:21:40.164Z,2.40
2017-11-29T18:24:09.438Z,2.40
2017-11-29T18:26:38.420Z,2.40
2017-11-29T18:29:05.919Z,2.40
2017-11-29T18:31:34.162Z,2.50
2017-11-29T18:34:01.670Z,2.50
2017-11-29T18:36:29.196Z,2.50
2017-11-29T18:38:57.445Z,2.50
2017-11-29T18:41:24.934Z,2.50
2017-11-29T18:43:53.188Z,2.50
2017-11-29T18:46:20.672Z,2.50
2017-11-29T18:48:48.927Z,2.60
2017-11-29T18:51:16.422Z,2.60
2017-11-29T18:53:43.917Z,2.60
2017-11-29T18:56:11.388Z,2.60
2017-11-29T18:58:38.875Z,2.70
2017-11-29T19:01:07.117Z,2.70
2017-11-29T19:03:34.628Z,2.70
2017-11-29T19:06:02.123Z,2.70
2017-11-29T19:08:29.634Z,2.60
2017-11-29T19:10:58.806Z,2.60
2017-11-29T19:13:27.221Z,2.60
2017-11-29T19:15:55.003Z,2.60
2017-11-29T19:18:22.501Z,2.60
2017-11-29T19:20:49.992Z,2.60
2017-11-29T19:23:18.243Z,2.60
2017-11-29T19:25:45.735Z,2.60
2017-11-29T19:28:13.216Z,2.60
2017-11-29T19:30:40.712Z,2.60
2017-11-29T19:33:08.194Z,2.60
2017-11-29T19:35:36.450Z,2.70
2017-11-29T19:38:03.955Z,2.70
2017-11-29T19:40:31.454Z,2.70
2017-11-29T19:42:58.939Z,2.70
2017-11-29T19:45:27.218Z,2.70
2017-11-29T19:47:55.501Z,2.70
2017-11-29T19:50:23.784Z,2.40
2017-11-29T19:52:52.024Z,2.40
2017-11-29T19:55:19.514Z,2.30
2017-11-29T19:57:47.758Z,2.40
2017-11-29T20:00:15.282Z,2.30
2017-11-29T20:02:42.761Z,2.30
2017-11-29T20:05:10.252Z,2.30
2017-11-29T20:07:37.730Z,2.30
2017-11-29T20:10:05.210Z,2.40
2017-11-29T20:12:32.709Z,2.40
2017-11-29T20:15:00.998Z,2.60
2017-11-29T20:17:28.471Z,2.50
2017-11-29T20:19:56.738Z,2.50
2017-11-29T20:22:25.008Z,2.60
2017-11-29T20:24:52.514Z,2.50
2017-11-29T20:27:20.006Z,2.50
2017-11-29T20:29:47.518Z,2.50
2017-11-29T20:32:15.002Z,2.40
2017-11-29T20:34:42.470Z,2.40
2017-11-29T20:37:09.958Z,2.60
2017-11-29T20:39:38.219Z,2.90
2017-11-29T20:42:05.728Z,2.90
2017-11-29T20:44:33.217Z,2.90
2017-11-29T20:47:00.722Z,2.90
2017-11-29T20:49:28.978Z,2.80
2017-11-29T20:51:57.284Z,2.80
2017-11-29T20:54:24.762Z,2.80
2017-11-29T20:56:52.260Z,2.80
2017-11-29T20:59:19.738Z,2.70
2017-11-29T21:01:47.993Z,2.60
2017-11-29T21:04:15.479Z,2.60
2017-11-29T21:06:43.746Z,2.50
2017-11-29T21:09:11.211Z,2.50
2017-11-29T21:11:39.512Z,2.40
2017-11-29T21:14:06.996Z,2.40
2017-11-29T21:16:34.489Z,2.40
2017-11-29T21:19:01.968Z,2.40
2017-11-29T21:21:29.476Z,2.30
2017-11-29T21:23:57.479Z,2.20
2017-11-29T21:26:24.966Z,2.20
2017-11-29T21:28:52.445Z,2.20
2017-11-29T21:31:19.936Z,2.20
2017-11-29T21:33:47.415Z,1.90
2017-11-29T21:36:15.669Z,1.90
2017-11-29T21:38:43.136Z,1.90
2017-11-29T21:41:10.610Z,1.90
2017-11-29T21:43:38.869Z,1.90
2017-11-29T21:46:07.129Z,1.80
2017-11-29T21:48:34.631Z,1.80
2017-11-29T21:51:02.890Z,1.80
2017-11-29T21:53:30.382Z,1.80
2017-11-29T21:55:57.877Z,1.80
2017-11-29T21:58:25.371Z,1.80
2017-11-29T22:00:53.639Z,1.80
2017-11-29T22:03:21.901Z,1.90
2017-11-29T22:05:49.382Z,1.80
2017-11-29T22:08:17.650Z,1.80
2017-11-29T22:10:45.896Z,1.80
2017-11-29T22:13:13.399Z,1.80
2017-11-29T22:15:41.696Z,1.70
2017-11-29T22:18:09.914Z,1.70
2017-11-29T22:20:37.389Z,1.70
2017-11-29T22:23:04.878Z,1.80
2017-11-29T22:25:32.374Z,1.80
2017-11-29T22:27:59.934Z,1.70
2017-11-29T22:30:27.404Z,1.70
2017-11-29T22:32:54.885Z,1.70
2017-11-29T22:35:23.226Z,1.70
2017-11-29T22:37:50.718Z,1.70
2017-11-29T22:40:18.960Z,1.60
2017-11-29T22:42:46.441Z,1.60
2017-11-29T22:45:13.919Z,1.60
2017-11-29T22:47:42.475Z,1.60
2017-11-29T22:50:09.958Z,1.60
2017-11-29T22:52:38.228Z,1.60
2017-11-29T22:55:06.465Z,1.50
2017-11-29T22:57:33.950Z,1.50
2017-11-29T23:00:01.426Z,1.60
2017-11-29T23:02:29.670Z,1.60
2017-11-29T23:04:57.161Z,1.60
2017-11-29T23:07:25.400Z,1.70
2017-11-29T23:09:52.897Z,1.70
2017-11-29T23:12:21.155Z,1.70
2017-11-29T23:14:48.644Z,1.70
2017-11-29T23:17:16.141Z,1.60
2017-11-29T23:19:43.632Z,1.60
2017-11-29T23:22:11.099Z,1.70
2017-11-29T23:24:39.354Z,1.70
2017-11-29T23:27:06.929Z,1.70
2017-11-29T23:29:34.433Z,1.70
2017-11-29T23:32:01.907Z,1.70
2017-11-29T23:34:29.401Z,1.70
2017-11-29T23:36:56.871Z,1.70
2017-11-29T23:39:25.130Z,1.70
2017-11-29T23:41:52.601Z,1.70
2017-11-29T23:44:20.855Z,1.80
2017-11-29T23:46:49.853Z,1.70
2017-11-29T23:49:18.845Z,1.70
2017-11-29T23:51:46.312Z,1.70
2017-11-29T23:54:14.572Z,1.80
2017-11-29T23:56:42.063Z,1.80
2017-11-29T23:59:10.319Z,1.80
